Delta Poseidon — SVBF6 — position and weather

sailwx.info

Track history (hours):
 
Tides and Currents Weather Stations Pressure Air Temp Water Temp Dewpoint Dewpoint Depression Visibility Wind Speed Wind Dir Waves Ship Positions

Delta Poseidon

Last reported at 2016-Dec-02 10:29 UTC. Time now 2016-Dec-03 00:17 UTC.
Position N 39°25' W 010°28'.

Length 274 m; draft 9 m.

Type: Tanker. MMSI: 241086000.

Date/timePositionNaut miles runAvg speedWind from/ knotsBaromVisibWave heightAir tempDewpointWater temp
2016-Dec-02 10:29N 39°25' W 010°28'12 9.7
2016-Dec-02 09:17N 39°36' W 010°23'7 9.4
2016-Dec-02 08:33N 39°42' W 010°20'11 9.3
2016-Dec-02 07:23N 39°52' W 010°15'  
2016-Nov-27 15:27N 28°42' W 014°34'1112.3
2016-Nov-27 14:33N 28°32' W 014°41'1312.6
2016-Nov-27 13:33N 28°21' W 014°48'1312.6
2016-Nov-27 12:33N 28°10' W 014°54'1312.7
2016-Nov-27 11:33N 27°58' W 014°59'1312.9
2016-Nov-27 10:33N 27°46' W 015°05'1312.7
2016-Nov-27 09:33N 27°34' W 015°10'  
Track history (hours):
 
Tides and Currents Weather Stations Pressure Air Temp Water Temp Dewpoint Dewpoint Depression Visibility Wind Speed Wind Dir Waves Ship Positions

Delta Poseidon

Last reported at 2016-Dec-02 10:29 UTC. Time now 2016-Dec-03 00:17 UTC.
Position N 39°25' W 010°28'.

Length 274 m; draft 9 m.

Type: Tanker. MMSI: 241086000.

Date/timePositionNaut miles runAvg speedWind from/ knotsBaromVisibWave heightAir tempDewpointWater temp
2016-Dec-02 10:29N 39°25' W 010°28'12 9.7
2016-Dec-02 09:17N 39°36' W 010°23'7 9.4
2016-Dec-02 08:33N 39°42' W 010°20'11 9.3
2016-Dec-02 07:23N 39°52' W 010°15'  
2016-Nov-27 15:27N 28°42' W 014°34'1112.3
2016-Nov-27 14:33N 28°32' W 014°41'1312.6
2016-Nov-27 13:33N 28°21' W 014°48'1312.6
2016-Nov-27 12:33N 28°10' W 014°54'1312.7
2016-Nov-27 11:33N 27°58' W 014°59'1312.9
2016-Nov-27 10:33N 27°46' W 015°05'1312.7
2016-Nov-27 09:33N 27°34' W 015°10'  

Dump ship's entire track history